sensor_id;sensor_type;location;lat;lon;timestamp;P1;durP1;ratioP1;P2;durP2;ratioP2
55827;SDS011;41758;51.992;5.890;2023-03-01T00:01:29;6.90;;;4.72;;
55827;SDS011;41758;51.992;5.890;2023-03-01T00:03:56;9.07;;;4.50;;
55827;SDS011;41758;51.992;5.890;2023-03-01T00:06:22;6.95;;;4.40;;
55827;SDS011;41758;51.992;5.890;2023-03-01T00:08:49;6.88;;;4.22;;
55827;SDS011;41758;51.992;5.890;2023-03-01T00:11:16;8.02;;;4.57;;
55827;SDS011;41758;51.992;5.890;2023-03-01T00:13:46;7.97;;;4.70;;
55827;SDS011;41758;51.992;5.890;2023-03-01T00:16:17;6.93;;;4.63;;
55827;SDS011;41758;51.992;5.890;2023-03-01T00:19:09;7.50;;;4.75;;
55827;SDS011;41758;51.992;5.890;2023-03-01T00:21:41;8.23;;;5.13;;
55827;SDS011;41758;51.992;5.890;2023-03-01T00:24:07;6.75;;;4.63;;
55827;SDS011;41758;51.992;5.890;2023-03-01T00:26:33;7.28;;;4.60;;
55827;SDS011;41758;51.992;5.890;2023-03-01T00:28:59;7.28;;;4.70;;
55827;SDS011;41758;51.992;5.890;2023-03-01T00:31:29;7.72;;;4.65;;
55827;SDS011;41758;51.992;5.890;2023-03-01T00:33:58;7.30;;;4.70;;
55827;SDS011;41758;51.992;5.890;2023-03-01T00:36:26;7.57;;;4.97;;
55827;SDS011;41758;51.992;5.890;2023-03-01T00:38:54;7.07;;;4.75;;
55827;SDS011;41758;51.992;5.890;2023-03-01T00:41:20;8.63;;;5.05;;
55827;SDS011;41758;51.992;5.890;2023-03-01T00:43:48;8.55;;;5.35;;
55827;SDS011;41758;51.992;5.890;2023-03-01T00:46:15;7.85;;;4.97;;
55827;SDS011;41758;51.992;5.890;2023-03-01T00:48:43;7.97;;;5.07;;
55827;SDS011;41758;51.992;5.890;2023-03-01T00:51:10;7.97;;;5.20;;
55827;SDS011;41758;51.992;5.890;2023-03-01T00:53:38;7.50;;;5.40;;
55827;SDS011;41758;51.992;5.890;2023-03-01T00:56:05;8.23;;;5.55;;
55827;SDS011;41758;51.992;5.890;2023-03-01T00:58:32;7.13;;;5.00;;
55827;SDS011;41758;51.992;5.890;2023-03-01T01:00:58;9.43;;;6.22;;
55827;SDS011;41758;51.992;5.890;2023-03-01T01:03:25;9.05;;;5.50;;
55827;SDS011;41758;51.992;5.890;2023-03-01T01:05:52;8.65;;;5.63;;
55827;SDS011;41758;51.992;5.890;2023-03-01T01:08:19;9.18;;;5.88;;
55827;SDS011;41758;51.992;5.890;2023-03-01T01:10:46;8.77;;;5.65;;
55827;SDS011;41758;51.992;5.890;2023-03-01T01:13:12;8.85;;;5.80;;
55827;SDS011;41758;51.992;5.890;2023-03-01T01:15:39;9.07;;;6.13;;
55827;SDS011;41758;51.992;5.890;2023-03-01T01:18:05;10.63;;;6.20;;
55827;SDS011;41758;51.992;5.890;2023-03-01T01:20:31;8.93;;;5.68;;
55827;SDS011;41758;51.992;5.890;2023-03-01T01:22:58;10.07;;;5.20;;
55827;SDS011;41758;51.992;5.890;2023-03-01T01:25:23;7.82;;;5.72;;
55827;SDS011;41758;51.992;5.890;2023-03-01T01:27:53;9.52;;;5.57;;
55827;SDS011;41758;51.992;5.890;2023-03-01T01:30:18;7.95;;;5.28;;
55827;SDS011;41758;51.992;5.890;2023-03-01T01:32:44;9.45;;;6.00;;
55827;SDS011;41758;51.992;5.890;2023-03-01T01:35:11;10.02;;;6.15;;
55827;SDS011;41758;51.992;5.890;2023-03-01T01:37:36;8.70;;;6.10;;
55827;SDS011;41758;51.992;5.890;2023-03-01T01:40:02;9.45;;;6.57;;
55827;SDS011;41758;51.992;5.890;2023-03-01T01:42:29;9.30;;;6.47;;
55827;SDS011;41758;51.992;5.890;2023-03-01T01:47:50;10.95;;;6.10;;
55827;SDS011;41758;51.992;5.890;2023-03-01T01:50:17;9.80;;;6.25;;
55827;SDS011;41758;51.992;5.890;2023-03-01T01:52:44;9.23;;;6.50;;
55827;SDS011;41758;51.992;5.890;2023-03-01T01:55:14;9.75;;;6.50;;
55827;SDS011;41758;51.992;5.890;2023-03-01T01:57:46;9.98;;;6.07;;
55827;SDS011;41758;51.992;5.890;2023-03-01T02:00:25;9.20;;;6.05;;
55827;SDS011;41758;51.992;5.890;2023-03-01T02:03:07;7.72;;;5.57;;
55827;SDS011;41758;51.992;5.890;2023-03-01T02:05:43;9.18;;;5.80;;
55827;SDS011;41758;51.992;5.890;2023-03-01T02:08:17;10.57;;;5.68;;
55827;SDS011;41758;51.992;5.890;2023-03-01T02:10:45;10.45;;;6.00;;
55827;SDS011;41758;51.992;5.890;2023-03-01T02:13:11;8.00;;;5.53;;
55827;SDS011;41758;51.992;5.890;2023-03-01T02:15:38;10.95;;;6.40;;
55827;SDS011;41758;51.992;5.890;2023-03-01T02:18:06;8.52;;;5.85;;
55827;SDS011;41758;51.992;5.890;2023-03-01T02:20:36;8.60;;;5.70;;
55827;SDS011;41758;51.992;5.890;2023-03-01T02:23:05;10.63;;;5.72;;
55827;SDS011;41758;51.992;5.890;2023-03-01T02:25:38;9.05;;;6.00;;
55827;SDS011;41758;51.992;5.890;2023-03-01T02:28:20;10.05;;;5.72;;
55827;SDS011;41758;51.992;5.890;2023-03-01T02:30:49;8.43;;;5.60;;
55827;SDS011;41758;51.992;5.890;2023-03-01T02:33:36;10.35;;;6.05;;
55827;SDS011;41758;51.992;5.890;2023-03-01T02:36:04;11.10;;;5.80;;
55827;SDS011;41758;51.992;5.890;2023-03-01T02:38:33;9.63;;;5.60;;
55827;SDS011;41758;51.992;5.890;2023-03-01T02:40:59;9.55;;;6.20;;
55827;SDS011;41758;51.992;5.890;2023-03-01T02:43:27;8.02;;;5.53;;
55827;SDS011;41758;51.992;5.890;2023-03-01T02:45:57;9.30;;;5.80;;
55827;SDS011;41758;51.992;5.890;2023-03-01T02:48:24;8.77;;;5.50;;
55827;SDS011;41758;51.992;5.890;2023-03-01T02:51:02;10.07;;;5.93;;
55827;SDS011;41758;51.992;5.890;2023-03-01T02:56:11;9.43;;;6.03;;
55827;SDS011;41758;51.992;5.890;2023-03-01T02:58:40;8.07;;;5.50;;
55827;SDS011;41758;51.992;5.890;2023-03-01T03:01:12;9.02;;;5.90;;
55827;SDS011;41758;51.992;5.890;2023-03-01T03:03:40;10.25;;;6.22;;
55827;SDS011;41758;51.992;5.890;2023-03-01T03:06:07;7.57;;;5.60;;
55827;SDS011;41758;51.992;5.890;2023-03-01T03:08:33;9.40;;;5.72;;
55827;SDS011;41758;51.992;5.890;2023-03-01T03:10:59;11.90;;;6.40;;
55827;SDS011;41758;51.992;5.890;2023-03-01T03:13:24;11.60;;;6.22;;
55827;SDS011;41758;51.992;5.890;2023-03-01T03:15:54;9.95;;;5.93;;
55827;SDS011;41758;51.992;5.890;2023-03-01T03:18:21;11.98;;;6.32;;
55827;SDS011;41758;51.992;5.890;2023-03-01T03:20:48;10.15;;;6.20;;
55827;SDS011;41758;51.992;5.890;2023-03-01T03:23:18;8.63;;;5.78;;
55827;SDS011;41758;51.992;5.890;2023-03-01T03:25:44;8.55;;;6.03;;
55827;SDS011;41758;51.992;5.890;2023-03-01T03:28:14;9.63;;;6.35;;
55827;SDS011;41758;51.992;5.890;2023-03-01T03:30:41;10.10;;;6.25;;
55827;SDS011;41758;51.992;5.890;2023-03-01T03:33:07;10.50;;;6.20;;
55827;SDS011;41758;51.992;5.890;2023-03-01T03:35:37;9.65;;;6.05;;
55827;SDS011;41758;51.992;5.890;2023-03-01T03:38:06;9.15;;;5.82;;
55827;SDS011;41758;51.992;5.890;2023-03-01T03:40:41;8.65;;;5.57;;
55827;SDS011;41758;51.992;5.890;2023-03-01T03:43:15;10.05;;;6.40;;
55827;SDS011;41758;51.992;5.890;2023-03-01T03:45:46;7.97;;;5.60;;
55827;SDS011;41758;51.992;5.890;2023-03-01T03:48:15;9.40;;;5.38;;
55827;SDS011;41758;51.992;5.890;2023-03-01T03:50:41;7.68;;;5.28;;
55827;SDS011;41758;51.992;5.890;2023-03-01T03:53:12;9.13;;;5.53;;
55827;SDS011;41758;51.992;5.890;2023-03-01T03:55:38;9.60;;;5.90;;
55827;SDS011;41758;51.992;5.890;2023-03-01T03:58:05;10.52;;;5.32;;
55827;SDS011;41758;51.992;5.890;2023-03-01T04:00:39;9.07;;;5.80;;
55827;SDS011;41758;51.992;5.890;2023-03-01T04:03:06;9.55;;;5.88;;
55827;SDS011;41758;51.992;5.890;2023-03-01T04:05:33;9.18;;;5.80;;
55827;SDS011;41758;51.992;5.890;2023-03-01T04:07:59;10.13;;;5.50;;
55827;SDS011;41758;51.992;5.890;2023-03-01T04:10:29;7.97;;;5.30;;
55827;SDS011;41758;51.992;5.890;2023-03-01T04:12:57;10.07;;;5.40;;
55827;SDS011;41758;51.992;5.890;2023-03-01T04:15:23;8.15;;;5.43;;
55827;SDS011;41758;51.992;5.890;2023-03-01T04:17:51;8.48;;;5.45;;
55827;SDS011;41758;51.992;5.890;2023-03-01T04:20:21;8.73;;;5.82;;
55827;SDS011;41758;51.992;5.890;2023-03-01T04:22:52;9.40;;;5.53;;
55827;SDS011;41758;51.992;5.890;2023-03-01T04:25:22;7.82;;;5.72;;
55827;SDS011;41758;51.992;5.890;2023-03-01T04:27:51;7.68;;;5.63;;
55827;SDS011;41758;51.992;5.890;2023-03-01T04:30:17;8.95;;;5.40;;
55827;SDS011;41758;51.992;5.890;2023-03-01T04:32:42;9.82;;;5.75;;
55827;SDS011;41758;51.992;5.890;2023-03-01T04:35:08;8.95;;;5.80;;
55827;SDS011;41758;51.992;5.890;2023-03-01T04:37:34;7.90;;;5.43;;
55827;SDS011;41758;51.992;5.890;2023-03-01T04:40:01;8.35;;;5.53;;
55827;SDS011;41758;51.992;5.890;2023-03-01T04:42:37;11.60;;;5.75;;
55827;SDS011;41758;51.992;5.890;2023-03-01T04:45:03;8.40;;;5.65;;
55827;SDS011;41758;51.992;5.890;2023-03-01T04:47:41;8.43;;;5.35;;
55827;SDS011;41758;51.992;5.890;2023-03-01T04:50:12;8.98;;;5.90;;
55827;SDS011;41758;51.992;5.890;2023-03-01T04:52:41;10.00;;;5.15;;
55827;SDS011;41758;51.992;5.890;2023-03-01T04:55:07;7.75;;;5.47;;
55827;SDS011;41758;51.992;5.890;2023-03-01T04:57:33;10.43;;;5.90;;
55827;SDS011;41758;51.992;5.890;2023-03-01T04:59:59;7.78;;;5.53;;
55827;SDS011;41758;51.992;5.890;2023-03-01T05:02:25;7.65;;;5.40;;
55827;SDS011;41758;51.992;5.890;2023-03-01T05:04:51;9.80;;;5.68;;
55827;SDS011;41758;51.992;5.890;2023-03-01T05:07:17;8.05;;;5.88;;
55827;SDS011;41758;51.992;5.890;2023-03-01T05:09:47;8.65;;;5.30;;
55827;SDS011;41758;51.992;5.890;2023-03-01T05:12:14;8.88;;;5.45;;
55827;SDS011;41758;51.992;5.890;2023-03-01T05:14:40;9.02;;;6.22;;
55827;SDS011;41758;51.992;5.890;2023-03-01T05:17:06;9.02;;;5.55;;
55827;SDS011;41758;51.992;5.890;2023-03-01T05:19:33;9.38;;;5.40;;
55827;SDS011;41758;51.992;5.890;2023-03-01T05:21:59;7.30;;;5.07;;
55827;SDS011;41758;51.992;5.890;2023-03-01T05:24:29;10.13;;;6.03;;
55827;SDS011;41758;51.992;5.890;2023-03-01T05:27:01;8.80;;;5.68;;
55827;SDS011;41758;51.992;5.890;2023-03-01T05:29:28;8.07;;;5.63;;
55827;SDS011;41758;51.992;5.890;2023-03-01T05:31:57;9.90;;;5.90;;
55827;SDS011;41758;51.992;5.890;2023-03-01T05:34:28;9.77;;;5.50;;
55827;SDS011;41758;51.992;5.890;2023-03-01T05:36:56;10.57;;;5.85;;
55827;SDS011;41758;51.992;5.890;2023-03-01T05:39:23;8.10;;;5.32;;
55827;SDS011;41758;51.992;5.890;2023-03-01T05:41:54;8.30;;;5.72;;
55827;SDS011;41758;51.992;5.890;2023-03-01T05:44:21;8.98;;;5.55;;
55827;SDS011;41758;51.992;5.890;2023-03-01T05:46:47;9.10;;;5.40;;
55827;SDS011;41758;51.992;5.890;2023-03-01T05:49:13;7.82;;;5.55;;
55827;SDS011;41758;51.992;5.890;2023-03-01T05:51:40;8.40;;;5.68;;
55827;SDS011;41758;51.992;5.890;2023-03-01T05:54:06;9.13;;;5.45;;
55827;SDS011;41758;51.992;5.890;2023-03-01T05:56:33;8.05;;;5.30;;
55827;SDS011;41758;51.992;5.890;2023-03-01T05:58:59;9.90;;;6.30;;
55827;SDS011;41758;51.992;5.890;2023-03-01T06:01:26;8.05;;;5.50;;
55827;SDS011;41758;51.992;5.890;2023-03-01T06:03:51;9.32;;;5.90;;
55827;SDS011;41758;51.992;5.890;2023-03-01T06:06:17;8.20;;;5.65;;
55827;SDS011;41758;51.992;5.890;2023-03-01T06:08:43;8.50;;;5.88;;
55827;SDS011;41758;51.992;5.890;2023-03-01T06:11:09;10.73;;;6.72;;
55827;SDS011;41758;51.992;5.890;2023-03-01T06:13:35;10.00;;;6.07;;
55827;SDS011;41758;51.992;5.890;2023-03-01T06:16:03;10.25;;;6.28;;
55827;SDS011;41758;51.992;5.890;2023-03-01T06:18:32;10.80;;;6.75;;
55827;SDS011;41758;51.992;5.890;2023-03-01T06:20:58;11.32;;;6.80;;
55827;SDS011;41758;51.992;5.890;2023-03-01T06:23:23;10.75;;;6.13;;
55827;SDS011;41758;51.992;5.890;2023-03-01T06:25:50;10.70;;;6.43;;
55827;SDS011;41758;51.992;5.890;2023-03-01T06:28:16;11.10;;;6.50;;
55827;SDS011;41758;51.992;5.890;2023-03-01T06:30:41;9.38;;;6.00;;
55827;SDS011;41758;51.992;5.890;2023-03-01T06:33:07;10.45;;;6.18;;
55827;SDS011;41758;51.992;5.890;2023-03-01T06:35:33;9.15;;;6.00;;
55827;SDS011;41758;51.992;5.890;2023-03-01T06:38:00;12.88;;;6.65;;
55827;SDS011;41758;51.992;5.890;2023-03-01T06:40:27;10.98;;;6.70;;
55827;SDS011;41758;51.992;5.890;2023-03-01T06:42:53;8.75;;;6.25;;
55827;SDS011;41758;51.992;5.890;2023-03-01T06:45:20;10.52;;;5.72;;
55827;SDS011;41758;51.992;5.890;2023-03-01T06:47:46;8.43;;;5.38;;
55827;SDS011;41758;51.992;5.890;2023-03-01T06:50:12;8.88;;;5.30;;
55827;SDS011;41758;51.992;5.890;2023-03-01T06:52:39;11.35;;;6.68;;
55827;SDS011;41758;51.992;5.890;2023-03-01T06:55:05;8.82;;;5.88;;
55827;SDS011;41758;51.992;5.890;2023-03-01T06:57:32;10.48;;;6.25;;
55827;SDS011;41758;51.992;5.890;2023-03-01T06:59:57;10.80;;;6.18;;
55827;SDS011;41758;51.992;5.890;2023-03-01T07:02:23;9.63;;;6.28;;
55827;SDS011;41758;51.992;5.890;2023-03-01T07:04:49;9.82;;;5.72;;
55827;SDS011;41758;51.992;5.890;2023-03-01T07:07:16;9.90;;;6.50;;
55827;SDS011;41758;51.992;5.890;2023-03-01T07:09:43;10.18;;;6.32;;
55827;SDS011;41758;51.992;5.890;2023-03-01T07:12:10;9.23;;;6.18;;
55827;SDS011;41758;51.992;5.890;2023-03-01T07:14:36;8.80;;;5.82;;
55827;SDS011;41758;51.992;5.890;2023-03-01T07:17:01;10.57;;;5.63;;
55827;SDS011;41758;51.992;5.890;2023-03-01T07:19:27;11.93;;;6.07;;
55827;SDS011;41758;51.992;5.890;2023-03-01T07:21:53;11.00;;;6.95;;
55827;SDS011;41758;51.992;5.890;2023-03-01T07:24:20;14.07;;;10.13;;
55827;SDS011;41758;51.992;5.890;2023-03-01T07:26:49;13.25;;;9.15;;
55827;SDS011;41758;51.992;5.890;2023-03-01T07:29:16;13.32;;;8.07;;
55827;SDS011;41758;51.992;5.890;2023-03-01T07:31:42;11.05;;;7.13;;
55827;SDS011;41758;51.992;5.890;2023-03-01T07:34:08;11.98;;;7.60;;
55827;SDS011;41758;51.992;5.890;2023-03-01T07:36:35;11.25;;;6.75;;
55827;SDS011;41758;51.992;5.890;2023-03-01T07:39:01;13.98;;;6.80;;
55827;SDS011;41758;51.992;5.890;2023-03-01T07:41:28;9.63;;;6.25;;
55827;SDS011;41758;51.992;5.890;2023-03-01T07:43:54;9.23;;;6.50;;
55827;SDS011;41758;51.992;5.890;2023-03-01T07:46:20;10.63;;;6.28;;
55827;SDS011;41758;51.992;5.890;2023-03-01T07:48:46;10.73;;;6.60;;
55827;SDS011;41758;51.992;5.890;2023-03-01T07:51:12;9.50;;;6.40;;
55827;SDS011;41758;51.992;5.890;2023-03-01T07:53:38;10.73;;;6.93;;
55827;SDS011;41758;51.992;5.890;2023-03-01T07:56:08;12.15;;;6.50;;
55827;SDS011;41758;51.992;5.890;2023-03-01T07:58:38;11.43;;;6.95;;
55827;SDS011;41758;51.992;5.890;2023-03-01T08:01:06;7.82;;;5.40;;
55827;SDS011;41758;51.992;5.890;2023-03-01T08:03:34;11.02;;;6.53;;
55827;SDS011;41758;51.992;5.890;2023-03-01T08:06:00;9.52;;;6.30;;
55827;SDS011;41758;51.992;5.890;2023-03-01T08:08:28;8.30;;;5.80;;
55827;SDS011;41758;51.992;5.890;2023-03-01T08:10:57;8.93;;;6.30;;
55827;SDS011;41758;51.992;5.890;2023-03-01T08:13:24;8.52;;;5.72;;
55827;SDS011;41758;51.992;5.890;2023-03-01T08:15:51;13.57;;;5.72;;
55827;SDS011;41758;51.992;5.890;2023-03-01T08:18:17;15.25;;;7.18;;
55827;SDS011;41758;51.992;5.890;2023-03-01T08:20:43;10.73;;;7.05;;
55827;SDS011;41758;51.992;5.890;2023-03-01T08:23:09;16.55;;;5.88;;
55827;SDS011;41758;51.992;5.890;2023-03-01T08:25:35;11.70;;;6.47;;
55827;SDS011;41758;51.992;5.890;2023-03-01T08:28:01;9.43;;;6.15;;
55827;SDS011;41758;51.992;5.890;2023-03-01T08:30:28;7.78;;;4.93;;
55827;SDS011;41758;51.992;5.890;2023-03-01T08:32:54;10.25;;;5.97;;
55827;SDS011;41758;51.992;5.890;2023-03-01T08:35:20;12.00;;;6.50;;
55827;SDS011;41758;51.992;5.890;2023-03-01T08:37:47;9.15;;;5.35;;
55827;SDS011;41758;51.992;5.890;2023-03-01T08:40:13;9.98;;;5.63;;
55827;SDS011;41758;51.992;5.890;2023-03-01T08:42:39;8.93;;;5.63;;
55827;SDS011;41758;51.992;5.890;2023-03-01T08:45:08;9.73;;;5.45;;
55827;SDS011;41758;51.992;5.890;2023-03-01T08:47:35;8.65;;;5.30;;
55827;SDS011;41758;51.992;5.890;2023-03-01T08:50:00;8.98;;;5.13;;
55827;SDS011;41758;51.992;5.890;2023-03-01T08:52:26;9.30;;;5.25;;
55827;SDS011;41758;51.992;5.890;2023-03-01T08:54:53;10.18;;;5.18;;
55827;SDS011;41758;51.992;5.890;2023-03-01T08:57:18;7.78;;;4.75;;
55827;SDS011;41758;51.992;5.890;2023-03-01T08:59:44;10.20;;;5.25;;
55827;SDS011;41758;51.992;5.890;2023-03-01T09:02:14;7.85;;;4.75;;
55827;SDS011;41758;51.992;5.890;2023-03-01T09:04:42;8.30;;;5.07;;
55827;SDS011;41758;51.992;5.890;2023-03-01T09:07:09;8.65;;;4.88;;
55827;SDS011;41758;51.992;5.890;2023-03-01T09:09:36;8.32;;;5.10;;
55827;SDS011;41758;51.992;5.890;2023-03-01T09:12:02;9.93;;;4.38;;
55827;SDS011;41758;51.992;5.890;2023-03-01T09:14:29;6.10;;;4.10;;
55827;SDS011;41758;51.992;5.890;2023-03-01T09:16:54;7.85;;;4.57;;
55827;SDS011;41758;51.992;5.890;2023-03-01T09:19:20;6.57;;;4.30;;
55827;SDS011;41758;51.992;5.890;2023-03-01T09:21:46;9.32;;;4.38;;
55827;SDS011;41758;51.992;5.890;2023-03-01T09:24:19;8.52;;;4.40;;
55827;SDS011;41758;51.992;5.890;2023-03-01T09:26:46;7.68;;;4.38;;
55827;SDS011;41758;51.992;5.890;2023-03-01T09:29:13;8.23;;;4.38;;
55827;SDS011;41758;51.992;5.890;2023-03-01T09:31:40;9.02;;;4.05;;
55827;SDS011;41758;51.992;5.890;2023-03-01T09:34:06;6.07;;;3.97;;
55827;SDS011;41758;51.992;5.890;2023-03-01T09:36:33;5.88;;;4.00;;
55827;SDS011;41758;51.992;5.890;2023-03-01T09:38:59;7.10;;;4.28;;
55827;SDS011;41758;51.992;5.890;2023-03-01T09:46:47;8.80;;;5.65;;
55827;SDS011;41758;51.992;5.890;2023-03-01T09:49:17;10.63;;;5.38;;
55827;SDS011;41758;51.992;5.890;2023-03-01T09:51:57;11.32;;;6.32;;
55827;SDS011;41758;51.992;5.890;2023-03-01T09:54:28;8.07;;;5.90;;
55827;SDS011;41758;51.992;5.890;2023-03-01T09:56:59;9.88;;;5.72;;
55827;SDS011;41758;51.992;5.890;2023-03-01T09:59:58;11.63;;;6.10;;
55827;SDS011;41758;51.992;5.890;2023-03-01T10:02:45;9.00;;;6.10;;
55827;SDS011;41758;51.992;5.890;2023-03-01T10:10:40;9.45;;;5.55;;
55827;SDS011;41758;51.992;5.890;2023-03-01T10:16:10;9.95;;;5.78;;
55827;SDS011;41758;51.992;5.890;2023-03-01T10:18:39;7.80;;;5.50;;
55827;SDS011;41758;51.992;5.890;2023-03-01T10:21:13;8.02;;;4.93;;
55827;SDS011;41758;51.992;5.890;2023-03-01T10:23:42;7.78;;;4.50;;
55827;SDS011;41758;51.992;5.890;2023-03-01T10:29:06;8.60;;;4.95;;
55827;SDS011;41758;51.992;5.890;2023-03-01T10:31:44;7.80;;;4.63;;
55827;SDS011;41758;51.992;5.890;2023-03-01T10:34:20;7.80;;;4.55;;
55827;SDS011;41758;51.992;5.890;2023-03-01T10:36:52;6.85;;;4.28;;
55827;SDS011;41758;51.992;5.890;2023-03-01T10:39:26;9.43;;;4.65;;
55827;SDS011;41758;51.992;5.890;2023-03-01T10:44:37;8.65;;;4.82;;
55827;SDS011;41758;51.992;5.890;2023-03-01T10:47:27;7.38;;;4.38;;
55827;SDS011;41758;51.992;5.890;2023-03-01T10:52:20;6.55;;;4.53;;
55827;SDS011;41758;51.992;5.890;2023-03-01T10:54:51;6.72;;;4.05;;
55827;SDS011;41758;51.992;5.890;2023-03-01T10:57:41;8.60;;;3.88;;
55827;SDS011;41758;51.992;5.890;2023-03-01T11:02:49;5.97;;;3.65;;
55827;SDS011;41758;51.992;5.890;2023-03-01T11:05:26;8.35;;;3.78;;
55827;SDS011;41758;51.992;5.890;2023-03-01T11:07:58;6.15;;;3.70;;
55827;SDS011;41758;51.992;5.890;2023-03-01T11:10:27;5.85;;;3.58;;
55827;SDS011;41758;51.992;5.890;2023-03-01T11:12:53;6.45;;;3.88;;
55827;SDS011;41758;51.992;5.890;2023-03-01T11:15:30;6.97;;;3.80;;
55827;SDS011;41758;51.992;5.890;2023-03-01T11:17:56;7.45;;;4.20;;
55827;SDS011;41758;51.992;5.890;2023-03-01T11:20:32;7.97;;;3.72;;
55827;SDS011;41758;51.992;5.890;2023-03-01T11:23:02;6.20;;;3.55;;
55827;SDS011;41758;51.992;5.890;2023-03-01T11:25:34;6.50;;;3.58;;
55827;SDS011;41758;51.992;5.890;2023-03-01T11:28:03;6.15;;;3.53;;
55827;SDS011;41758;51.992;5.890;2023-03-01T11:30:32;6.38;;;3.40;;
55827;SDS011;41758;51.992;5.890;2023-03-01T11:35:34;6.32;;;3.47;;
55827;SDS011;41758;51.992;5.890;2023-03-01T11:38:09;5.50;;;3.38;;
55827;SDS011;41758;51.992;5.890;2023-03-01T11:40:52;6.32;;;3.63;;
55827;SDS011;41758;51.992;5.890;2023-03-01T11:52:16;5.50;;;3.03;;
55827;SDS011;41758;51.992;5.890;2023-03-01T12:05:57;6.30;;;3.20;;
55827;SDS011;41758;51.992;5.890;2023-03-01T12:22:45;5.68;;;3.30;;
55827;SDS011;41758;51.992;5.890;2023-03-01T12:33:43;5.45;;;3.38;;
55827;SDS011;41758;51.992;5.890;2023-03-01T12:36:23;7.03;;;3.40;;
55827;SDS011;41758;51.992;5.890;2023-03-01T12:41:51;3.72;;;2.40;;
55827;SDS011;41758;51.992;5.890;2023-03-01T12:50:18;4.93;;;2.83;;
55827;SDS011;41758;51.992;5.890;2023-03-01T12:53:14;4.60;;;2.80;;
55827;SDS011;41758;51.992;5.890;2023-03-01T12:55:47;4.47;;;2.63;;
55827;SDS011;41758;51.992;5.890;2023-03-01T13:03:31;4.70;;;2.88;;
55827;SDS011;41758;51.992;5.890;2023-03-01T13:08:39;5.43;;;3.03;;
55827;SDS011;41758;51.992;5.890;2023-03-01T13:11:18;5.07;;;3.05;;
55827;SDS011;41758;51.992;5.890;2023-03-01T13:13:46;4.38;;;2.47;;
55827;SDS011;41758;51.992;5.890;2023-03-01T13:19:09;4.85;;;2.35;;
55827;SDS011;41758;51.992;5.890;2023-03-01T13:21:42;4.15;;;2.20;;
55827;SDS011;41758;51.992;5.890;2023-03-01T13:27:30;4.90;;;2.90;;
55827;SDS011;41758;51.992;5.890;2023-03-01T13:29:57;3.72;;;2.28;;
55827;SDS011;41758;51.992;5.890;2023-03-01T13:35:01;3.55;;;2.40;;
55827;SDS011;41758;51.992;5.890;2023-03-01T13:37:40;4.53;;;2.58;;
55827;SDS011;41758;51.992;5.890;2023-03-01T13:42:54;3.72;;;2.38;;
55827;SDS011;41758;51.992;5.890;2023-03-01T13:48:08;5.50;;;2.75;;
55827;SDS011;41758;51.992;5.890;2023-03-01T13:50:49;5.28;;;3.00;;
55827;SDS011;41758;51.992;5.890;2023-03-01T13:53:18;5.30;;;2.63;;
55827;SDS011;41758;51.992;5.890;2023-03-01T14:03:54;6.32;;;3.20;;
55827;SDS011;41758;51.992;5.890;2023-03-01T14:06:22;5.32;;;3.38;;
55827;SDS011;41758;51.992;5.890;2023-03-01T14:14:56;5.65;;;3.33;;
55827;SDS011;41758;51.992;5.890;2023-03-01T14:19:59;5.85;;;3.40;;
55827;SDS011;41758;51.992;5.890;2023-03-01T14:22:33;7.38;;;3.80;;
55827;SDS011;41758;51.992;5.890;2023-03-01T14:27:30;6.97;;;3.92;;
55827;SDS011;41758;51.992;5.890;2023-03-01T14:30:01;5.20;;;2.90;;
55827;SDS011;41758;51.992;5.890;2023-03-01T14:32:30;7.20;;;3.75;;
55827;SDS011;41758;51.992;5.890;2023-03-01T14:34:57;7.72;;;3.47;;
55827;SDS011;41758;51.992;5.890;2023-03-01T14:37:32;6.43;;;3.55;;
55827;SDS011;41758;51.992;5.890;2023-03-01T14:40:00;6.00;;;3.38;;
55827;SDS011;41758;51.992;5.890;2023-03-01T14:42:36;5.65;;;3.17;;
55827;SDS011;41758;51.992;5.890;2023-03-01T14:45:02;5.57;;;3.03;;
55827;SDS011;41758;51.992;5.890;2023-03-01T14:47:32;7.10;;;3.92;;
55827;SDS011;41758;51.992;5.890;2023-03-01T14:50:07;6.43;;;3.58;;
55827;SDS011;41758;51.992;5.890;2023-03-01T14:52:41;7.28;;;3.80;;
55827;SDS011;41758;51.992;5.890;2023-03-01T14:55:19;7.00;;;3.78;;
55827;SDS011;41758;51.992;5.890;2023-03-01T14:57:47;5.75;;;3.00;;
55827;SDS011;41758;51.992;5.890;2023-03-01T15:00:22;6.82;;;3.50;;
55827;SDS011;41758;51.992;5.890;2023-03-01T15:02:51;5.63;;;3.33;;
55827;SDS011;41758;51.992;5.890;2023-03-01T15:05:21;5.30;;;3.03;;
55827;SDS011;41758;51.992;5.890;2023-03-01T15:07:54;8.45;;;3.45;;
55827;SDS011;41758;51.992;5.890;2023-03-01T15:10:23;5.07;;;3.13;;
55827;SDS011;41758;51.992;5.890;2023-03-01T15:12:51;5.57;;;3.40;;
55827;SDS011;41758;51.992;5.890;2023-03-01T15:15:31;5.43;;;2.80;;
55827;SDS011;41758;51.992;5.890;2023-03-01T15:18:11;6.15;;;3.25;;
55827;SDS011;41758;51.992;5.890;2023-03-01T15:20:41;5.88;;;3.65;;
55827;SDS011;41758;51.992;5.890;2023-03-01T15:23:16;6.18;;;3.80;;
55827;SDS011;41758;51.992;5.890;2023-03-01T15:25:46;5.07;;;2.90;;
55827;SDS011;41758;51.992;5.890;2023-03-01T15:28:18;5.97;;;3.13;;
55827;SDS011;41758;51.992;5.890;2023-03-01T15:30:45;5.85;;;3.25;;
55827;SDS011;41758;51.992;5.890;2023-03-01T15:36:30;6.18;;;2.88;;
55827;SDS011;41758;51.992;5.890;2023-03-01T15:38:59;6.38;;;3.08;;
55827;SDS011;41758;51.992;5.890;2023-03-01T15:41:30;6.03;;;3.08;;
55827;SDS011;41758;51.992;5.890;2023-03-01T15:44:16;4.95;;;3.30;;
55827;SDS011;41758;51.992;5.890;2023-03-01T15:46:49;7.53;;;3.00;;
55827;SDS011;41758;51.992;5.890;2023-03-01T15:52:00;5.35;;;2.72;;
55827;SDS011;41758;51.992;5.890;2023-03-01T15:54:26;5.50;;;3.50;;
55827;SDS011;41758;51.992;5.890;2023-03-01T15:56:52;6.18;;;2.85;;
55827;SDS011;41758;51.992;5.890;2023-03-01T15:59:19;5.47;;;3.25;;
55827;SDS011;41758;51.992;5.890;2023-03-01T16:01:45;5.40;;;3.15;;
55827;SDS011;41758;51.992;5.890;2023-03-01T16:04:13;4.43;;;2.75;;
55827;SDS011;41758;51.992;5.890;2023-03-01T16:06:47;7.28;;;2.83;;
55827;SDS011;41758;51.992;5.890;2023-03-01T16:09:23;7.72;;;3.08;;
55827;SDS011;41758;51.992;5.890;2023-03-01T16:11:50;6.10;;;3.25;;
55827;SDS011;41758;51.992;5.890;2023-03-01T16:14:17;8.20;;;3.30;;
55827;SDS011;41758;51.992;5.890;2023-03-01T16:16:43;5.03;;;2.72;;
55827;SDS011;41758;51.992;5.890;2023-03-01T16:19:09;5.80;;;3.08;;
55827;SDS011;41758;51.992;5.890;2023-03-01T16:21:36;7.45;;;3.05;;
55827;SDS011;41758;51.992;5.890;2023-03-01T16:24:02;6.35;;;3.03;;
55827;SDS011;41758;51.992;5.890;2023-03-01T16:26:28;5.55;;;3.30;;
55827;SDS011;41758;51.992;5.890;2023-03-01T16:28:54;5.68;;;3.05;;
55827;SDS011;41758;51.992;5.890;2023-03-01T16:31:21;5.28;;;3.00;;
55827;SDS011;41758;51.992;5.890;2023-03-01T16:33:47;4.50;;;3.00;;
55827;SDS011;41758;51.992;5.890;2023-03-01T16:36:15;5.95;;;3.10;;
55827;SDS011;41758;51.992;5.890;2023-03-01T16:38:43;5.28;;;3.00;;
55827;SDS011;41758;51.992;5.890;2023-03-01T16:41:15;5.15;;;2.65;;
55827;SDS011;41758;51.992;5.890;2023-03-01T16:43:43;5.00;;;3.00;;
55827;SDS011;41758;51.992;5.890;2023-03-01T16:49:09;6.45;;;3.40;;
55827;SDS011;41758;51.992;5.890;2023-03-01T16:51:34;6.68;;;3.10;;
55827;SDS011;41758;51.992;5.890;2023-03-01T16:54:01;5.32;;;3.38;;
55827;SDS011;41758;51.992;5.890;2023-03-01T16:56:29;5.43;;;2.83;;
55827;SDS011;41758;51.992;5.890;2023-03-01T16:58:56;7.05;;;3.38;;
55827;SDS011;41758;51.992;5.890;2023-03-01T17:01:22;5.55;;;3.10;;
55827;SDS011;41758;51.992;5.890;2023-03-01T17:03:51;5.57;;;3.03;;
55827;SDS011;41758;51.992;5.890;2023-03-01T17:06:19;6.05;;;3.22;;
55827;SDS011;41758;51.992;5.890;2023-03-01T17:08:47;4.78;;;2.85;;
55827;SDS011;41758;51.992;5.890;2023-03-01T17:11:14;4.68;;;2.95;;